sensor_id;sensor_type;location;lat;lon;timestamp;temperature;humidity
25170;DHT22;13129;48.012;10.352;2023-04-24T03:34:34;8.40;99.90
25170;DHT22;13129;48.012;10.352;2023-04-24T03:37:00;8.40;99.90
25170;DHT22;13129;48.012;10.352;2023-04-24T03:39:26;8.40;99.90
25170;DHT22;13129;48.012;10.352;2023-04-24T03:41:52;8.40;99.90
25170;DHT22;13129;48.012;10.352;2023-04-24T03:46:45;8.40;99.90
25170;DHT22;13129;48.012;10.352;2023-04-24T03:49:11;8.40;99.90
25170;DHT22;13129;48.012;10.352;2023-04-24T03:51:36;8.30;99.90
25170;DHT22;13129;48.012;10.352;2023-04-24T03:54:02;8.30;99.90
25170;DHT22;13129;48.012;10.352;2023-04-24T03:56:28;8.30;99.90
25170;DHT22;13129;48.012;10.352;2023-04-24T03:58:54;8.30;99.90
25170;DHT22;13129;48.012;10.352;2023-04-24T04:01:19;8.30;99.90
25170;DHT22;13129;48.012;10.352;2023-04-24T04:03:46;8.30;99.90
25170;DHT22;13129;48.012;10.352;2023-04-24T04:06:12;8.20;99.90
25170;DHT22;13129;48.012;10.352;2023-04-24T04:08:38;8.30;99.90
25170;DHT22;13129;48.012;10.352;2023-04-24T04:11:04;8.20;99.90
25170;DHT22;13129;48.012;10.352;2023-04-24T04:13:29;8.20;99.90
25170;DHT22;13129;48.012;10.352;2023-04-24T04:15:55;8.20;99.90
25170;DHT22;13129;48.012;10.352;2023-04-24T04:18:20;8.20;99.90
25170;DHT22;13129;48.012;10.352;2023-04-24T04:20:46;8.30;99.90
25170;DHT22;13129;48.012;10.352;2023-04-24T04:23:12;8.30;99.90
25170;DHT22;13129;48.012;10.352;2023-04-24T04:25:37;8.20;99.90
25170;DHT22;13129;48.012;10.352;2023-04-24T04:28:03;8.30;99.90
25170;DHT22;13129;48.012;10.352;2023-04-24T04:30:29;8.30;99.90
25170;DHT22;13129;48.012;10.352;2023-04-24T04:32:58;8.30;99.90
25170;DHT22;13129;48.012;10.352;2023-04-24T04:35:24;8.30;99.90
25170;DHT22;13129;48.012;10.352;2023-04-24T04:37:51;8.20;99.90
25170;DHT22;13129;48.012;10.352;2023-04-24T04:40:17;8.20;99.90
25170;DHT22;13129;48.012;10.352;2023-04-24T04:42:42;8.20;99.90
25170;DHT22;13129;48.012;10.352;2023-04-24T04:45:11;8.20;99.90
25170;DHT22;13129;48.012;10.352;2023-04-24T04:47:37;8.20;99.90
25170;DHT22;13129;48.012;10.352;2023-04-24T04:50:03;8.20;99.90
25170;DHT22;13129;48.012;10.352;2023-04-24T04:52:31;8.20;99.90
25170;DHT22;13129;48.012;10.352;2023-04-24T04:54:56;8.20;99.90
25170;DHT22;13129;48.012;10.352;2023-04-24T04:57:22;8.20;99.90
25170;DHT22;13129;48.012;10.352;2023-04-24T04:59:48;8.20;99.90
25170;DHT22;13129;48.012;10.352;2023-04-24T05:02:14;8.20;99.90
25170;DHT22;13129;48.012;10.352;2023-04-24T05:04:40;8.20;99.90
25170;DHT22;13129;48.012;10.352;2023-04-24T05:07:05;8.20;99.90
25170;DHT22;13129;48.012;10.352;2023-04-24T05:09:31;8.20;99.90
25170;DHT22;13129;48.012;10.352;2023-04-24T05:11:57;8.20;99.90
25170;DHT22;13129;48.012;10.352;2023-04-24T05:14:23;8.20;99.90
25170;DHT22;13129;48.012;10.352;2023-04-24T05:16:48;8.20;99.90
25170;DHT22;13129;48.012;10.352;2023-04-24T05:19:14;8.20;99.90
25170;DHT22;13129;48.012;10.352;2023-04-24T05:21:40;8.20;99.90
25170;DHT22;13129;48.012;10.352;2023-04-24T05:24:06;8.30;99.90
25170;DHT22;13129;48.012;10.352;2023-04-24T05:26:32;8.30;99.90
25170;DHT22;13129;48.012;10.352;2023-04-24T05:28:57;8.40;99.90
25170;DHT22;13129;48.012;10.352;2023-04-24T05:31:23;8.40;99.90
25170;DHT22;13129;48.012;10.352;2023-04-24T05:33:49;8.40;99.90
25170;DHT22;13129;48.012;10.352;2023-04-24T05:36:15;8.50;99.90
25170;DHT22;13129;48.012;10.352;2023-04-24T05:38:40;8.50;99.90
25170;DHT22;13129;48.012;10.352;2023-04-24T05:41:06;8.50;99.90
25170;DHT22;13129;48.012;10.352;2023-04-24T05:43:32;8.60;99.90
25170;DHT22;13129;48.012;10.352;2023-04-24T05:45:57;8.60;99.90
25170;DHT22;13129;48.012;10.352;2023-04-24T05:48:23;8.60;99.90
25170;DHT22;13129;48.012;10.352;2023-04-24T05:50:49;8.70;99.90
25170;DHT22;13129;48.012;10.352;2023-04-24T05:53:14;8.70;99.90
25170;DHT22;13129;48.012;10.352;2023-04-24T05:55:40;8.70;99.90
25170;DHT22;13129;48.012;10.352;2023-04-24T05:58:06;8.70;99.90
25170;DHT22;13129;48.012;10.352;2023-04-24T06:00:32;8.80;99.90
25170;DHT22;13129;48.012;10.352;2023-04-24T06:02:59;8.80;99.90
25170;DHT22;13129;48.012;10.352;2023-04-24T06:05:25;8.80;99.90
25170;DHT22;13129;48.012;10.352;2023-04-24T06:07:51;8.90;99.90
25170;DHT22;13129;48.012;10.352;2023-04-24T06:10:17;8.90;99.90
25170;DHT22;13129;48.012;10.352;2023-04-24T06:12:42;9.00;99.90
25170;DHT22;13129;48.012;10.352;2023-04-24T06:15:08;9.10;99.90
25170;DHT22;13129;48.012;10.352;2023-04-24T06:17:34;9.10;99.90
25170;DHT22;13129;48.012;10.352;2023-04-24T06:20:00;9.20;99.90
25170;DHT22;13129;48.012;10.352;2023-04-24T06:22:25;9.30;99.90
25170;DHT22;13129;48.012;10.352;2023-04-24T06:24:51;9.30;99.90
25170;DHT22;13129;48.012;10.352;2023-04-24T06:27:16;9.40;99.90
25170;DHT22;13129;48.012;10.352;2023-04-24T06:29:42;9.50;99.90
25170;DHT22;13129;48.012;10.352;2023-04-24T06:32:08;9.50;99.90
25170;DHT22;13129;48.012;10.352;2023-04-24T06:34:33;9.60;99.90
25170;DHT22;13129;48.012;10.352;2023-04-24T06:37:00;9.70;99.90
25170;DHT22;13129;48.012;10.352;2023-04-24T06:39:26;9.70;99.90
25170;DHT22;13129;48.012;10.352;2023-04-24T06:41:51;9.80;99.90
25170;DHT22;13129;48.012;10.352;2023-04-24T06:44:17;9.90;99.90
25170;DHT22;13129;48.012;10.352;2023-04-24T06:46:43;9.90;99.90
25170;DHT22;13129;48.012;10.352;2023-04-24T06:49:09;9.80;99.90
25170;DHT22;13129;48.012;10.352;2023-04-24T06:51:35;9.70;99.90
25170;DHT22;13129;48.012;10.352;2023-04-24T06:54:00;9.60;99.90
25170;DHT22;13129;48.012;10.352;2023-04-24T06:56:27;9.60;99.90
25170;DHT22;13129;48.012;10.352;2023-04-24T06:58:54;9.60;99.90
25170;DHT22;13129;48.012;10.352;2023-04-24T07:01:20;9.60;99.90
25170;DHT22;13129;48.012;10.352;2023-04-24T07:03:45;9.60;99.90
25170;DHT22;13129;48.012;10.352;2023-04-24T07:06:11;9.60;99.90
25170;DHT22;13129;48.012;10.352;2023-04-24T07:08:38;9.60;99.90
25170;DHT22;13129;48.012;10.352;2023-04-24T07:11:04;9.50;99.90
25170;DHT22;13129;48.012;10.352;2023-04-24T07:13:29;9.50;99.90
25170;DHT22;13129;48.012;10.352;2023-04-24T07:15:55;9.40;99.90
25170;DHT22;13129;48.012;10.352;2023-04-24T07:18:22;9.30;99.90
25170;DHT22;13129;48.012;10.352;2023-04-24T07:20:48;9.30;99.90
25170;DHT22;13129;48.012;10.352;2023-04-24T07:23:15;9.30;99.90
25170;DHT22;13129;48.012;10.352;2023-04-24T07:25:41;9.00;99.90
25170;DHT22;13129;48.012;10.352;2023-04-24T07:28:07;8.70;99.90
25170;DHT22;13129;48.012;10.352;2023-04-24T07:30:33;8.40;99.90
25170;DHT22;13129;48.012;10.352;2023-04-24T07:32:59;8.20;99.90
25170;DHT22;13129;48.012;10.352;2023-04-24T07:35:25;8.00;99.90
25170;DHT22;13129;48.012;10.352;2023-04-24T07:37:53;7.80;99.90
25170;DHT22;13129;48.012;10.352;2023-04-24T07:40:19;7.70;99.90
25170;DHT22;13129;48.012;10.352;2023-04-24T07:42:44;7.70;99.90
25170;DHT22;13129;48.012;10.352;2023-04-24T07:45:10;7.60;99.90
25170;DHT22;13129;48.012;10.352;2023-04-24T07:47:36;7.60;99.90
25170;DHT22;13129;48.012;10.352;2023-04-24T07:50:03;7.50;99.90
25170;DHT22;13129;48.012;10.352;2023-04-24T07:52:29;7.50;99.90
25170;DHT22;13129;48.012;10.352;2023-04-24T07:54:55;7.70;99.90
25170;DHT22;13129;48.012;10.352;2023-04-24T07:57:24;8.30;99.90
25170;DHT22;13129;48.012;10.352;2023-04-24T07:59:55;9.40;99.90
25170;DHT22;13129;48.012;10.352;2023-04-24T08:02:21;10.90;99.90
25170;DHT22;13129;48.012;10.352;2023-04-24T08:04:54;11.80;99.90
25170;DHT22;13129;48.012;10.352;2023-04-24T08:07:20;12.00;99.90
25170;DHT22;13129;48.012;10.352;2023-04-24T08:09:45;11.90;99.90
25170;DHT22;13129;48.012;10.352;2023-04-24T08:12:11;11.70;99.90
25170;DHT22;13129;48.012;10.352;2023-04-24T08:14:37;11.60;99.90
25170;DHT22;13129;48.012;10.352;2023-04-24T08:17:02;11.60;99.90
25170;DHT22;13129;48.012;10.352;2023-04-24T08:19:29;11.60;99.90
25170;DHT22;13129;48.012;10.352;2023-04-24T08:21:54;11.80;99.90
25170;DHT22;13129;48.012;10.352;2023-04-24T08:24:20;12.10;99.90
25170;DHT22;13129;48.012;10.352;2023-04-24T08:26:46;12.00;99.90
25170;DHT22;13129;48.012;10.352;2023-04-24T08:29:11;11.70;99.90
25170;DHT22;13129;48.012;10.352;2023-04-24T08:31:37;11.70;99.90
25170;DHT22;13129;48.012;10.352;2023-04-24T08:34:02;12.00;99.90
25170;DHT22;13129;48.012;10.352;2023-04-24T08:36:28;12.20;99.90
25170;DHT22;13129;48.012;10.352;2023-04-24T08:38:54;12.70;99.90
25170;DHT22;13129;48.012;10.352;2023-04-24T08:41:19;12.80;99.90
25170;DHT22;13129;48.012;10.352;2023-04-24T08:43:46;13.00;99.90
25170;DHT22;13129;48.012;10.352;2023-04-24T08:46:13;13.00;99.90
25170;DHT22;13129;48.012;10.352;2023-04-24T08:48:39;13.50;99.90
25170;DHT22;13129;48.012;10.352;2023-04-24T08:51:09;13.80;99.90
25170;DHT22;13129;48.012;10.352;2023-04-24T08:53:35;14.00;99.90
25170;DHT22;13129;48.012;10.352;2023-04-24T08:56:02;14.60;99.90
25170;DHT22;13129;48.012;10.352;2023-04-24T08:58:28;15.60;99.90
25170;DHT22;13129;48.012;10.352;2023-04-24T09:00:55;16.70;99.90
25170;DHT22;13129;48.012;10.352;2023-04-24T09:03:21;17.60;99.90
25170;DHT22;13129;48.012;10.352;2023-04-24T09:05:48;18.00;99.90
25170;DHT22;13129;48.012;10.352;2023-04-24T09:08:17;18.00;99.90
25170;DHT22;13129;48.012;10.352;2023-04-24T09:10:43;18.30;99.90
25170;DHT22;13129;48.012;10.352;2023-04-24T09:13:09;18.80;99.90
25170;DHT22;13129;48.012;10.352;2023-04-24T09:15:36;19.00;97.70
25170;DHT22;13129;48.012;10.352;2023-04-24T09:18:02;18.20;96.00
25170;DHT22;13129;48.012;10.352;2023-04-24T09:20:28;16.90;96.50
25170;DHT22;13129;48.012;10.352;2023-04-24T09:22:54;15.80;97.80
25170;DHT22;13129;48.012;10.352;2023-04-24T09:25:21;14.80;99.10
25170;DHT22;13129;48.012;10.352;2023-04-24T09:27:47;13.40;99.60
25170;DHT22;13129;48.012;10.352;2023-04-24T09:30:13;12.10;99.90
25170;DHT22;13129;48.012;10.352;2023-04-24T09:32:39;11.20;99.90
25170;DHT22;13129;48.012;10.352;2023-04-24T09:37:35;9.70;99.90
25170;DHT22;13129;48.012;10.352;2023-04-24T09:40:12;9.20;99.90
25170;DHT22;13129;48.012;10.352;2023-04-24T09:42:38;8.90;99.90
25170;DHT22;13129;48.012;10.352;2023-04-24T09:45:11;8.70;99.90
25170;DHT22;13129;48.012;10.352;2023-04-24T09:47:38;9.40;99.90
25170;DHT22;13129;48.012;10.352;2023-04-24T09:50:15;10.00;99.90
25170;DHT22;13129;48.012;10.352;2023-04-24T09:52:56;12.40;99.90
25170;DHT22;13129;48.012;10.352;2023-04-24T09:55:21;14.60;99.90
25170;DHT22;13129;48.012;10.352;2023-04-24T09:57:51;15.90;99.90
25170;DHT22;13129;48.012;10.352;2023-04-24T10:00:31;16.90;99.90
25170;DHT22;13129;48.012;10.352;2023-04-24T10:03:02;17.10;99.90
25170;DHT22;13129;48.012;10.352;2023-04-24T10:05:32;17.80;99.90
25170;DHT22;13129;48.012;10.352;2023-04-24T10:08:03;19.70;99.90
25170;DHT22;13129;48.012;10.352;2023-04-24T10:10:29;22.00;99.80
25170;DHT22;13129;48.012;10.352;2023-04-24T10:12:55;23.90;93.10
25170;DHT22;13129;48.012;10.352;2023-04-24T10:15:21;25.20;87.70
25170;DHT22;13129;48.012;10.352;2023-04-24T10:17:48;26.00;79.20
25170;DHT22;13129;48.012;10.352;2023-04-24T10:20:19;26.50;73.10
25170;DHT22;13129;48.012;10.352;2023-04-24T10:22:51;26.90;70.90
25170;DHT22;13129;48.012;10.352;2023-04-24T10:25:22;27.90;67.10
25170;DHT22;13129;48.012;10.352;2023-04-24T10:27:49;28.40;63.10
25170;DHT22;13129;48.012;10.352;2023-04-24T10:30:15;26.30;59.60
25170;DHT22;13129;48.012;10.352;2023-04-24T10:32:41;23.50;65.10
25170;DHT22;13129;48.012;10.352;2023-04-24T10:35:08;20.90;70.70
25170;DHT22;13129;48.012;10.352;2023-04-24T10:37:49;18.70;76.50
25170;DHT22;13129;48.012;10.352;2023-04-24T10:40:18;17.10;82.60
25170;DHT22;13129;48.012;10.352;2023-04-24T10:42:48;16.10;86.20
25170;DHT22;13129;48.012;10.352;2023-04-24T10:45:18;15.40;88.00
25170;DHT22;13129;48.012;10.352;2023-04-24T10:50:27;15.20;90.70
25170;DHT22;13129;48.012;10.352;2023-04-24T10:52:55;15.10;90.40
25170;DHT22;13129;48.012;10.352;2023-04-24T10:55:41;14.90;90.50
25170;DHT22;13129;48.012;10.352;2023-04-24T10:58:08;14.60;90.90
25170;DHT22;13129;48.012;10.352;2023-04-24T11:00:37;15.00;91.60
25170;DHT22;13129;48.012;10.352;2023-04-24T11:03:23;15.70;91.40
25170;DHT22;13129;48.012;10.352;2023-04-24T11:05:52;16.20;91.50
25170;DHT22;13129;48.012;10.352;2023-04-24T11:08:48;16.70;90.70
25170;DHT22;13129;48.012;10.352;2023-04-24T11:11:14;16.90;87.60
25170;DHT22;13129;48.012;10.352;2023-04-24T11:19:05;16.30;86.50
25170;DHT22;13129;48.012;10.352;2023-04-24T11:34:52;17.70;81.10
25170;DHT22;13129;48.012;10.352;2023-04-24T11:37:17;18.00;79.70
25170;DHT22;13129;48.012;10.352;2023-04-24T11:39:43;18.10;79.00
25170;DHT22;13129;48.012;10.352;2023-04-24T11:42:09;17.70;80.30
25170;DHT22;13129;48.012;10.352;2023-04-24T11:44:35;17.30;81.80
25170;DHT22;13129;48.012;10.352;2023-04-24T11:47:08;16.90;82.80
25170;DHT22;13129;48.012;10.352;2023-04-24T11:49:33;16.40;83.00
25170;DHT22;13129;48.012;10.352;2023-04-24T11:52:02;16.20;83.30
25170;DHT22;13129;48.012;10.352;2023-04-24T11:54:28;15.80;82.20
25170;DHT22;13129;48.012;10.352;2023-04-24T11:56:55;15.30;81.50
25170;DHT22;13129;48.012;10.352;2023-04-24T11:59:21;14.70;81.60
25170;DHT22;13129;48.012;10.352;2023-04-24T12:01:48;14.20;82.60
25170;DHT22;13129;48.012;10.352;2023-04-24T12:04:15;13.70;81.40
25170;DHT22;13129;48.012;10.352;2023-04-24T12:06:59;13.40;81.30
25170;DHT22;13129;48.012;10.352;2023-04-24T12:09:25;13.20;81.60
25170;DHT22;13129;48.012;10.352;2023-04-24T12:11:57;13.40;82.90
25170;DHT22;13129;48.012;10.352;2023-04-24T12:14:23;13.60;82.40
25170;DHT22;13129;48.012;10.352;2023-04-24T12:16:54;13.90;82.90
25170;DHT22;13129;48.012;10.352;2023-04-24T12:19:23;14.40;82.90
25170;DHT22;13129;48.012;10.352;2023-04-24T12:22:03;14.70;81.60
25170;DHT22;13129;48.012;10.352;2023-04-24T12:24:30;14.80;80.90
25170;DHT22;13129;48.012;10.352;2023-04-24T12:26:56;14.60;80.40
25170;DHT22;13129;48.012;10.352;2023-04-24T12:29:23;14.40;80.40
25170;DHT22;13129;48.012;10.352;2023-04-24T12:31:50;14.20;79.40
25170;DHT22;13129;48.012;10.352;2023-04-24T12:34:24;14.00;79.40
25170;DHT22;13129;48.012;10.352;2023-04-24T12:36:50;13.80;79.00
25170;DHT22;13129;48.012;10.352;2023-04-24T12:39:20;13.70;80.10
25170;DHT22;13129;48.012;10.352;2023-04-24T12:41:56;13.90;80.70
25170;DHT22;13129;48.012;10.352;2023-04-24T12:44:31;14.30;80.80
25170;DHT22;13129;48.012;10.352;2023-04-24T12:47:00;14.50;78.10
25170;DHT22;13129;48.012;10.352;2023-04-24T12:49:25;14.30;76.30
25170;DHT22;13129;48.012;10.352;2023-04-24T12:51:51;14.10;76.80
25170;DHT22;13129;48.012;10.352;2023-04-24T12:54:17;14.10;76.80
25170;DHT22;13129;48.012;10.352;2023-04-24T12:56:42;13.90;77.60
25170;DHT22;13129;48.012;10.352;2023-04-24T12:59:08;13.60;77.30
25170;DHT22;13129;48.012;10.352;2023-04-24T13:01:34;13.40;78.10
25170;DHT22;13129;48.012;10.352;2023-04-24T13:03:59;13.20;79.60
25170;DHT22;13129;48.012;10.352;2023-04-24T13:06:25;12.90;81.00
25170;DHT22;13129;48.012;10.352;2023-04-24T13:08:51;12.70;81.80
25170;DHT22;13129;48.012;10.352;2023-04-24T13:11:17;12.70;82.40
25170;DHT22;13129;48.012;10.352;2023-04-24T13:13:43;12.80;82.30
25170;DHT22;13129;48.012;10.352;2023-04-24T13:16:09;13.00;81.40
25170;DHT22;13129;48.012;10.352;2023-04-24T13:18:34;13.00;80.10
25170;DHT22;13129;48.012;10.352;2023-04-24T13:21:00;13.00;80.40
25170;DHT22;13129;48.012;10.352;2023-04-24T13:23:26;13.00;81.20
25170;DHT22;13129;48.012;10.352;2023-04-24T13:25:51;12.90;82.20
25170;DHT22;13129;48.012;10.352;2023-04-24T13:28:17;12.90;82.40
25170;DHT22;13129;48.012;10.352;2023-04-24T13:30:43;13.00;82.60
25170;DHT22;13129;48.012;10.352;2023-04-24T13:33:09;13.10;82.10
25170;DHT22;13129;48.012;10.352;2023-04-24T13:35:35;13.20;82.00
25170;DHT22;13129;48.012;10.352;2023-04-24T13:38:00;13.40;81.90
25170;DHT22;13129;48.012;10.352;2023-04-24T13:40:27;13.60;81.40
25170;DHT22;13129;48.012;10.352;2023-04-24T13:42:52;13.80;80.60
25170;DHT22;13129;48.012;10.352;2023-04-24T13:45:20;13.90;80.40
25170;DHT22;13129;48.012;10.352;2023-04-24T13:47:46;14.00;81.30
25170;DHT22;13129;48.012;10.352;2023-04-24T13:50:11;13.80;80.30
25170;DHT22;13129;48.012;10.352;2023-04-24T13:52:37;13.70;79.80
25170;DHT22;13129;48.012;10.352;2023-04-24T13:55:03;13.50;80.40
25170;DHT22;13129;48.012;10.352;2023-04-24T13:57:28;13.40;80.50
25170;DHT22;13129;48.012;10.352;2023-04-24T13:59:56;13.30;79.80
25170;DHT22;13129;48.012;10.352;2023-04-24T14:02:26;13.10;80.30
25170;DHT22;13129;48.012;10.352;2023-04-24T14:04:52;13.10;80.60
25170;DHT22;13129;48.012;10.352;2023-04-24T14:07:18;13.00;81.50
25170;DHT22;13129;48.012;10.352;2023-04-24T14:09:43;13.20;82.40
25170;DHT22;13129;48.012;10.352;2023-04-24T14:12:09;13.20;81.20
25170;DHT22;13129;48.012;10.352;2023-04-24T14:14:35;13.30;81.70
25170;DHT22;13129;48.012;10.352;2023-04-24T14:17:00;13.40;82.00
25170;DHT22;13129;48.012;10.352;2023-04-24T14:19:26;13.70;81.00
25170;DHT22;13129;48.012;10.352;2023-04-24T14:21:51;13.60;78.90
25170;DHT22;13129;48.012;10.352;2023-04-24T14:24:18;13.60;80.50
25170;DHT22;13129;48.012;10.352;2023-04-24T14:26:44;13.80;81.50
25170;DHT22;13129;48.012;10.352;2023-04-24T14:29:09;13.60;80.40
25170;DHT22;13129;48.012;10.352;2023-04-24T14:31:35;13.40;80.20
25170;DHT22;13129;48.012;10.352;2023-04-24T14:34:01;13.40;81.30
25170;DHT22;13129;48.012;10.352;2023-04-24T14:36:26;13.40;82.10
25170;DHT22;13129;48.012;10.352;2023-04-24T14:38:52;13.30;81.20
25170;DHT22;13129;48.012;10.352;2023-04-24T14:41:17;13.30;81.80
25170;DHT22;13129;48.012;10.352;2023-04-24T14:43:43;13.20;81.30
25170;DHT22;13129;48.012;10.352;2023-04-24T14:46:09;13.10;81.50
25170;DHT22;13129;48.012;10.352;2023-04-24T14:48:34;13.00;81.80
25170;DHT22;13129;48.012;10.352;2023-04-24T14:51:00;12.90;82.00
25170;DHT22;13129;48.012;10.352;2023-04-24T14:53:26;12.90;83.40
25170;DHT22;13129;48.012;10.352;2023-04-24T14:55:51;12.80;83.20
25170;DHT22;13129;48.012;10.352;2023-04-24T14:58:17;12.70;83.20
25170;DHT22;13129;48.012;10.352;2023-04-24T15:00:43;12.60;82.60
25170;DHT22;13129;48.012;10.352;2023-04-24T15:03:08;12.50;83.30
25170;DHT22;13129;48.012;10.352;2023-04-24T15:05:34;12.30;82.80
25170;DHT22;13129;48.012;10.352;2023-04-24T15:08:00;12.20;83.40
25170;DHT22;13129;48.012;10.352;2023-04-24T15:10:26;12.30;83.70
25170;DHT22;13129;48.012;10.352;2023-04-24T15:12:52;12.50;84.20
25170;DHT22;13129;48.012;10.352;2023-04-24T15:15:17;12.50;84.00
25170;DHT22;13129;48.012;10.352;2023-04-24T15:17:43;12.60;82.60
25170;DHT22;13129;48.012;10.352;2023-04-24T15:20:09;12.60;82.60
25170;DHT22;13129;48.012;10.352;2023-04-24T15:22:35;12.50;83.40
25170;DHT22;13129;48.012;10.352;2023-04-24T15:25:00;12.40;83.30
25170;DHT22;13129;48.012;10.352;2023-04-24T15:27:26;12.40;82.70
25170;DHT22;13129;48.012;10.352;2023-04-24T15:29:52;12.30;83.30
25170;DHT22;13129;48.012;10.352;2023-04-24T15:32:19;12.30;83.60
25170;DHT22;13129;48.012;10.352;2023-04-24T15:34:44;12.50;83.40
25170;DHT22;13129;48.012;10.352;2023-04-24T15:37:10;12.50;82.90
25170;DHT22;13129;48.012;10.352;2023-04-24T15:39:36;12.40;83.30
25170;DHT22;13129;48.012;10.352;2023-04-24T15:42:02;12.40;83.20
25170;DHT22;13129;48.012;10.352;2023-04-24T15:44:28;12.40;84.10
25170;DHT22;13129;48.012;10.352;2023-04-24T15:46:54;12.40;84.70
25170;DHT22;13129;48.012;10.352;2023-04-24T15:49:20;12.30;84.90
25170;DHT22;13129;48.012;10.352;2023-04-24T15:51:46;12.20;83.20
25170;DHT22;13129;48.012;10.352;2023-04-24T15:54:12;12.10;84.00
25170;DHT22;13129;48.012;10.352;2023-04-24T15:56:38;12.20;83.50
25170;DHT22;13129;48.012;10.352;2023-04-24T15:59:04;12.20;83.90
25170;DHT22;13129;48.012;10.352;2023-04-24T16:01:30;12.30;84.70
25170;DHT22;13129;48.012;10.352;2023-04-24T16:03:57;12.30;85.30
25170;DHT22;13129;48.012;10.352;2023-04-24T16:06:22;12.20;85.60
25170;DHT22;13129;48.012;10.352;2023-04-24T16:08:49;12.20;85.80
25170;DHT22;13129;48.012;10.352;2023-04-24T16:11:15;12.10;86.50
25170;DHT22;13129;48.012;10.352;2023-04-24T16:13:41;12.10;86.00
25170;DHT22;13129;48.012;10.352;2023-04-24T16:16:07;12.10;85.60
25170;DHT22;13129;48.012;10.352;2023-04-24T16:18:33;12.10;85.90
25170;DHT22;13129;48.012;10.352;2023-04-24T16:20:58;12.10;85.50
25170;DHT22;13129;48.012;10.352;2023-04-24T16:23:24;12.10;85.20
25170;DHT22;13129;48.012;10.352;2023-04-24T16:25:50;12.10;85.40
25170;DHT22;13129;48.012;10.352;2023-04-24T16:28:18;12.00;85.20
25170;DHT22;13129;48.012;10.352;2023-04-24T16:30:44;11.90;85.00
25170;DHT22;13129;48.012;10.352;2023-04-24T16:33:10;11.60;85.30
25170;DHT22;13129;48.012;10.352;2023-04-24T16:35:36;11.50;86.10
25170;DHT22;13129;48.012;10.352;2023-04-24T16:38:03;11.50;86.40
25170;DHT22;13129;48.012;10.352;2023-04-24T16:40:29;11.50;86.50
25170;DHT22;13129;48.012;10.352;2023-04-24T16:42:55;11.60;87.10
25170;DHT22;13129;48.012;10.352;2023-04-24T16:45:20;11.70;87.20
25170;DHT22;13129;48.012;10.352;2023-04-24T16:47:46;11.70;86.90
25170;DHT22;13129;48.012;10.352;2023-04-24T16:50:12;11.70;87.30
25170;DHT22;13129;48.012;10.352;2023-04-24T16:52:37;11.60;87.40
25170;DHT22;13129;48.012;10.352;2023-04-24T16:55:03;11.50;88.10
25170;DHT22;13129;48.012;10.352;2023-04-24T16:57:29;11.40;89.00
25170;DHT22;13129;48.012;10.352;2023-04-24T16:59:55;11.30;89.30
25170;DHT22;13129;48.012;10.352;2023-04-24T17:02:20;11.20;89.20
25170;DHT22;13129;48.012;10.352;2023-04-24T17:04:46;11.20;89.40
25170;DHT22;13129;48.012;10.352;2023-04-24T17:07:12;11.10;89.50
25170;DHT22;13129;48.012;10.352;2023-04-24T17:09:38;10.90;89.80
25170;DHT22;13129;48.012;10.352;2023-04-24T17:12:04;10.70;90.00
25170;DHT22;13129;48.012;10.352;2023-04-24T17:14:30;10.50;90.10
25170;DHT22;13129;48.012;10.352;2023-04-24T17:16:55;10.40;90.30
25170;DHT22;13129;48.012;10.352;2023-04-24T17:19:21;10.20;90.40
25170;DHT22;13129;48.012;10.352;2023-04-24T17:21:47;10.20;90.60
25170;DHT22;13129;48.012;10.352;2023-04-24T17:24:12;10.20;90.60
25170;DHT22;13129;48.012;10.352;2023-04-24T17:26:38;10.20;90.70
25170;DHT22;13129;48.012;10.352;2023-04-24T17:29:04;10.20;90.80
25170;DHT22;13129;48.012;10.352;2023-04-24T17:31:31;10.10;90.90
25170;DHT22;13129;48.012;10.352;2023-04-24T17:33:56;10.00;91.00
25170;DHT22;13129;48.012;10.352;2023-04-24T17:36:23;9.90;91.30
25170;DHT22;13129;48.012;10.352;2023-04-24T17:38:50;9.80;91.50
25170;DHT22;13129;48.012;10.352;2023-04-24T17:41:16;9.70;91.70
25170;DHT22;13129;48.012;10.352;2023-04-24T17:43:42;9.60;91.90
25170;DHT22;13129;48.012;10.352;2023-04-24T17:46:10;9.50;92.10
25170;DHT22;13129;48.012;10.352;2023-04-24T17:48:35;9.50;92.30
25170;DHT22;13129;48.012;10.352;2023-04-24T17:51:01;9.40;92.30
25170;DHT22;13129;48.012;10.352;2023-04-24T17:53:27;9.30;92.50
25170;DHT22;13129;48.012;10.352;2023-04-24T17:55:52;9.20;92.70
25170;DHT22;13129;48.012;10.352;2023-04-24T17:58:26;9.20;92.80
25170;DHT22;13129;48.012;10.352;2023-04-24T18:00:52;9.30;92.90
25170;DHT22;13129;48.012;10.352;2023-04-24T18:03:17;9.20;93.00
25170;DHT22;13129;48.012;10.352;2023-04-24T18:05:43;9.30;93.10
25170;DHT22;13129;48.012;10.352;2023-04-24T18:08:09;9.30;93.20
25170;DHT22;13129;48.012;10.352;2023-04-24T18:10:34;9.30;93.30
25170;DHT22;13129;48.012;10.352;2023-04-24T18:13:04;9.30;93.40
25170;DHT22;13129;48.012;10.352;2023-04-24T18:15:30;9.30;93.40
25170;DHT22;13129;48.012;10.352;2023-04-24T18:17:55;9.30;93.50
25170;DHT22;13129;48.012;10.352;2023-04-24T18:20:21;9.20;93.60
25170;DHT22;13129;48.012;10.352;2023-04-24T18:22:47;9.20;93.60
25170;DHT22;13129;48.012;10.352;2023-04-24T18:25:14;9.10;93.70
25170;DHT22;13129;48.012;10.352;2023-04-24T18:27:40;9.10;93.90
25170;DHT22;13129;48.012;10.352;2023-04-24T18:30:07;9.10;94.00
25170;DHT22;13129;48.012;10.352;2023-04-24T18:32:34;9.00;94.10
25170;DHT22;13129;48.012;10.352;2023-04-24T18:35:00;9.10;94.20
25170;DHT22;13129;48.012;10.352;2023-04-24T18:37:25;9.00;94.20
25170;DHT22;13129;48.012;10.352;2023-04-24T18:39:51;9.10;94.30
25170;DHT22;13129;48.012;10.352;2023-04-24T18:42:17;9.00;94.30
25170;DHT22;13129;48.012;10.352;2023-04-24T18:44:42;9.10;94.30
25170;DHT22;13129;48.012;10.352;2023-04-24T18:47:09;9.00;94.40
25170;DHT22;13129;48.012;10.352;2023-04-24T18:49:35;9.00;94.50
25170;DHT22;13129;48.012;10.352;2023-04-24T18:52:00;9.00;94.50
25170;DHT22;13129;48.012;10.352;2023-04-24T18:54:26;9.00;94.60
25170;DHT22;13129;48.012;10.352;2023-04-24T18:56:52;8.90;94.70
25170;DHT22;13129;48.012;10.352;2023-04-24T18:59:19;8.80;94.90
25170;DHT22;13129;48.012;10.352;2023-04-24T19:01:45;8.70;95.20
25170;DHT22;13129;48.012;10.352;2023-04-24T19:04:11;8.70;95.40
25170;DHT22;13129;48.012;10.352;2023-04-24T19:06:38;8.60;95.50
25170;DHT22;13129;48.012;10.352;2023-04-24T19:09:04;8.60;95.70
25170;DHT22;13129;48.012;10.352;2023-04-24T19:11:29;8.50;95.80
25170;DHT22;13129;48.012;10.352;2023-04-24T19:13:55;8.50;96.00
25170;DHT22;13129;48.012;10.352;2023-04-24T19:16:23;8.50;96.30
25170;DHT22;13129;48.012;10.352;2023-04-24T19:18:50;8.50;96.40